sensor_id;sensor_type;location;lat;lon;timestamp;temperature;humidity
45137;DHT22;30894;51.740;19.498;2022-09-09T00:00:21;14.20;81.80
45137;DHT22;30894;51.740;19.498;2022-09-09T00:03:24;14.20;81.90
45137;DHT22;30894;51.740;19.498;2022-09-09T00:06:16;14.30;82.00
45137;DHT22;30894;51.740;19.498;2022-09-09T00:11:43;14.20;82.10
45137;DHT22;30894;51.740;19.498;2022-09-09T00:14:23;14.20;82.30
45137;DHT22;30894;51.740;19.498;2022-09-09T00:16:58;14.30;82.40
45137;DHT22;30894;51.740;19.498;2022-09-09T00:22:20;14.20;82.60
45137;DHT22;30894;51.740;19.498;2022-09-09T00:24:54;14.20;82.80
45137;DHT22;30894;51.740;19.498;2022-09-09T00:27:33;14.10;83.00
45137;DHT22;30894;51.740;19.498;2022-09-09T00:30:22;14.10;83.10
45137;DHT22;30894;51.740;19.498;2022-09-09T00:32:54;14.10;83.40
45137;DHT22;30894;51.740;19.498;2022-09-09T00:35:31;14.10;83.50
45137;DHT22;30894;51.740;19.498;2022-09-09T00:38:19;14.10;83.70
45137;DHT22;30894;51.740;19.498;2022-09-09T00:43:41;14.10;83.80
45137;DHT22;30894;51.740;19.498;2022-09-09T00:54:45;14.10;84.40
45137;DHT22;30894;51.740;19.498;2022-09-09T00:57:33;14.10;84.60
45137;DHT22;30894;51.740;19.498;2022-09-09T01:00:22;14.10;84.70
45137;DHT22;30894;51.740;19.498;2022-09-09T01:17:26;14.10;85.80
45137;DHT22;30894;51.740;19.498;2022-09-09T01:20:10;14.10;86.00
45137;DHT22;30894;51.740;19.498;2022-09-09T01:26:00;14.10;86.40
45137;DHT22;30894;51.740;19.498;2022-09-09T01:28:35;14.10;86.60
45137;DHT22;30894;51.740;19.498;2022-09-09T01:31:04;14.10;86.80
45137;DHT22;30894;51.740;19.498;2022-09-09T01:33:31;14.10;87.00
45137;DHT22;30894;51.740;19.498;2022-09-09T01:36:05;14.00;87.10
45137;DHT22;30894;51.740;19.498;2022-09-09T01:38:34;14.10;87.40
45137;DHT22;30894;51.740;19.498;2022-09-09T01:41:02;14.10;87.60
45137;DHT22;30894;51.740;19.498;2022-09-09T01:43:29;14.10;87.80
45137;DHT22;30894;51.740;19.498;2022-09-09T01:45:58;14.10;87.90
45137;DHT22;30894;51.740;19.498;2022-09-09T01:48:26;14.10;88.00
45137;DHT22;30894;51.740;19.498;2022-09-09T01:50:52;14.20;88.20
45137;DHT22;30894;51.740;19.498;2022-09-09T01:53:20;14.20;88.30
45137;DHT22;30894;51.740;19.498;2022-09-09T01:58:34;14.20;88.80
45137;DHT22;30894;51.740;19.498;2022-09-09T02:01:51;14.20;88.90
45137;DHT22;30894;51.740;19.498;2022-09-09T02:07:00;14.20;89.40
45137;DHT22;30894;51.740;19.498;2022-09-09T02:09:29;14.30;89.70
45137;DHT22;30894;51.740;19.498;2022-09-09T02:12:16;14.30;89.90
45137;DHT22;30894;51.740;19.498;2022-09-09T02:14:52;14.30;90.00
45137;DHT22;30894;51.740;19.498;2022-09-09T02:17:34;14.30;90.10
45137;DHT22;30894;51.740;19.498;2022-09-09T02:20:08;14.30;90.30
45137;DHT22;30894;51.740;19.498;2022-09-09T02:22:35;14.30;90.50
45137;DHT22;30894;51.740;19.498;2022-09-09T02:25:08;14.20;90.70
45137;DHT22;30894;51.740;19.498;2022-09-09T02:27:36;14.10;90.90
45137;DHT22;30894;51.740;19.498;2022-09-09T02:30:03;14.00;91.20
45137;DHT22;30894;51.740;19.498;2022-09-09T02:32:32;14.00;91.50
45137;DHT22;30894;51.740;19.498;2022-09-09T02:35:05;14.00;91.70
45137;DHT22;30894;51.740;19.498;2022-09-09T02:37:38;14.10;91.80
45137;DHT22;30894;51.740;19.498;2022-09-09T02:40:06;14.00;92.00
45137;DHT22;30894;51.740;19.498;2022-09-09T02:42:42;14.10;92.20
45137;DHT22;30894;51.740;19.498;2022-09-09T02:45:12;14.10;92.30
45137;DHT22;30894;51.740;19.498;2022-09-09T02:47:43;14.10;92.50
45137;DHT22;30894;51.740;19.498;2022-09-09T02:50:25;14.20;92.60
45137;DHT22;30894;51.740;19.498;2022-09-09T02:53:18;14.20;92.80
45137;DHT22;30894;51.740;19.498;2022-09-09T02:56:00;14.20;92.90
45137;DHT22;30894;51.740;19.498;2022-09-09T02:58:30;14.20;93.00
45137;DHT22;30894;51.740;19.498;2022-09-09T03:00:57;14.30;93.20
45137;DHT22;30894;51.740;19.498;2022-09-09T03:03:23;14.30;93.30
45137;DHT22;30894;51.740;19.498;2022-09-09T03:05:49;14.30;93.40
45137;DHT22;30894;51.740;19.498;2022-09-09T03:08:16;14.30;93.50
45137;DHT22;30894;51.740;19.498;2022-09-09T03:10:42;14.40;93.60
45137;DHT22;30894;51.740;19.498;2022-09-09T03:13:08;14.40;93.80
45137;DHT22;30894;51.740;19.498;2022-09-09T03:15:34;14.40;93.90
45137;DHT22;30894;51.740;19.498;2022-09-09T03:18:01;14.40;94.10
45137;DHT22;30894;51.740;19.498;2022-09-09T03:20:28;14.40;94.30
45137;DHT22;30894;51.740;19.498;2022-09-09T03:22:55;14.40;94.40
45137;DHT22;30894;51.740;19.498;2022-09-09T03:25:22;14.50;94.60
45137;DHT22;30894;51.740;19.498;2022-09-09T03:27:50;14.50;94.80
45137;DHT22;30894;51.740;19.498;2022-09-09T03:30:26;14.50;95.00
45137;DHT22;30894;51.740;19.498;2022-09-09T03:32:53;14.50;95.10
45137;DHT22;30894;51.740;19.498;2022-09-09T03:35:19;14.50;95.30
45137;DHT22;30894;51.740;19.498;2022-09-09T03:37:45;14.60;95.50
45137;DHT22;30894;51.740;19.498;2022-09-09T03:40:12;14.60;95.60
45137;DHT22;30894;51.740;19.498;2022-09-09T03:42:39;14.60;95.80
45137;DHT22;30894;51.740;19.498;2022-09-09T03:45:07;14.60;96.00
45137;DHT22;30894;51.740;19.498;2022-09-09T03:47:34;14.60;96.20
45137;DHT22;30894;51.740;19.498;2022-09-09T03:50:00;14.60;96.40
45137;DHT22;30894;51.740;19.498;2022-09-09T03:52:26;14.60;96.60
45137;DHT22;30894;51.740;19.498;2022-09-09T03:54:53;14.60;96.70
45137;DHT22;30894;51.740;19.498;2022-09-09T03:57:20;14.60;96.90
45137;DHT22;30894;51.740;19.498;2022-09-09T03:59:47;14.60;97.10
45137;DHT22;30894;51.740;19.498;2022-09-09T04:02:13;14.60;97.30
45137;DHT22;30894;51.740;19.498;2022-09-09T04:04:39;14.60;97.60
45137;DHT22;30894;51.740;19.498;2022-09-09T04:07:05;14.60;97.80
45137;DHT22;30894;51.740;19.498;2022-09-09T04:09:32;14.60;98.00
45137;DHT22;30894;51.740;19.498;2022-09-09T04:11:58;14.60;98.20
45137;DHT22;30894;51.740;19.498;2022-09-09T04:14:24;14.60;98.50
45137;DHT22;30894;51.740;19.498;2022-09-09T04:16:53;14.60;98.70
45137;DHT22;30894;51.740;19.498;2022-09-09T04:19:19;14.60;98.90
45137;DHT22;30894;51.740;19.498;2022-09-09T04:21:45;14.70;99.10
45137;DHT22;30894;51.740;19.498;2022-09-09T04:24:11;14.70;99.30
45137;DHT22;30894;51.740;19.498;2022-09-09T04:26:37;14.70;99.60
45137;DHT22;30894;51.740;19.498;2022-09-09T04:29:04;14.70;99.80
45137;DHT22;30894;51.740;19.498;2022-09-09T04:31:33;14.70;99.90
45137;DHT22;30894;51.740;19.498;2022-09-09T04:33:59;14.70;99.90
45137;DHT22;30894;51.740;19.498;2022-09-09T04:36:33;14.80;99.90
45137;DHT22;30894;51.740;19.498;2022-09-09T04:39:00;14.80;99.90
45137;DHT22;30894;51.740;19.498;2022-09-09T04:41:27;14.80;99.90
45137;DHT22;30894;51.740;19.498;2022-09-09T04:43:53;14.90;99.90
45137;DHT22;30894;51.740;19.498;2022-09-09T04:46:21;14.90;99.90
45137;DHT22;30894;51.740;19.498;2022-09-09T04:48:49;14.90;99.90
45137;DHT22;30894;51.740;19.498;2022-09-09T04:51:16;14.90;99.90
45137;DHT22;30894;51.740;19.498;2022-09-09T04:53:42;15.00;99.90
45137;DHT22;30894;51.740;19.498;2022-09-09T04:56:12;15.00;99.90
45137;DHT22;30894;51.740;19.498;2022-09-09T04:58:41;15.00;99.90
45137;DHT22;30894;51.740;19.498;2022-09-09T05:01:19;15.10;99.90
45137;DHT22;30894;51.740;19.498;2022-09-09T05:03:47;15.10;99.90
45137;DHT22;30894;51.740;19.498;2022-09-09T05:06:16;15.10;99.90
45137;DHT22;30894;51.740;19.498;2022-09-09T05:08:44;15.20;99.90
45137;DHT22;30894;51.740;19.498;2022-09-09T05:11:30;15.20;99.90
45137;DHT22;30894;51.740;19.498;2022-09-09T05:13:57;15.30;99.90
45137;DHT22;30894;51.740;19.498;2022-09-09T05:16:23;15.30;99.90
45137;DHT22;30894;51.740;19.498;2022-09-09T05:18:50;15.40;99.90
45137;DHT22;30894;51.740;19.498;2022-09-09T05:21:17;15.40;99.90
45137;DHT22;30894;51.740;19.498;2022-09-09T05:23:45;15.50;99.90
45137;DHT22;30894;51.740;19.498;2022-09-09T05:26:17;15.60;99.90
45137;DHT22;30894;51.740;19.498;2022-09-09T05:28:45;15.60;99.90
45137;DHT22;30894;51.740;19.498;2022-09-09T05:31:13;15.70;99.90
45137;DHT22;30894;51.740;19.498;2022-09-09T05:33:42;15.70;99.90
45137;DHT22;30894;51.740;19.498;2022-09-09T05:36:11;15.70;99.90
45137;DHT22;30894;51.740;19.498;2022-09-09T05:38:44;15.80;99.90
45137;DHT22;30894;51.740;19.498;2022-09-09T05:41:12;15.80;99.90
45137;DHT22;30894;51.740;19.498;2022-09-09T05:43:39;15.90;99.90
45137;DHT22;30894;51.740;19.498;2022-09-09T05:48:39;16.10;99.90
45137;DHT22;30894;51.740;19.498;2022-09-09T05:51:11;16.10;99.90
45137;DHT22;30894;51.740;19.498;2022-09-09T05:53:38;16.20;99.90
45137;DHT22;30894;51.740;19.498;2022-09-09T05:56:07;16.20;99.90
45137;DHT22;30894;51.740;19.498;2022-09-09T05:58:36;16.20;99.90
45137;DHT22;30894;51.740;19.498;2022-09-09T06:01:04;16.30;99.90
45137;DHT22;30894;51.740;19.498;2022-09-09T06:03:36;16.30;99.90
45137;DHT22;30894;51.740;19.498;2022-09-09T06:06:06;16.40;99.90
45137;DHT22;30894;51.740;19.498;2022-09-09T06:08:38;16.50;99.90
45137;DHT22;30894;51.740;19.498;2022-09-09T06:11:08;16.60;99.90
45137;DHT22;30894;51.740;19.498;2022-09-09T06:13:37;16.80;99.90
45137;DHT22;30894;51.740;19.498;2022-09-09T06:16:05;16.80;99.90
45137;DHT22;30894;51.740;19.498;2022-09-09T06:18:33;17.00;99.90
45137;DHT22;30894;51.740;19.498;2022-09-09T06:21:02;17.00;99.90
45137;DHT22;30894;51.740;19.498;2022-09-09T06:23:30;17.30;99.90
45137;DHT22;30894;51.740;19.498;2022-09-09T06:26:09;17.40;99.90
45137;DHT22;30894;51.740;19.498;2022-09-09T06:28:37;17.40;99.90
45137;DHT22;30894;51.740;19.498;2022-09-09T06:31:06;17.40;99.90
45137;DHT22;30894;51.740;19.498;2022-09-09T06:33:35;17.40;99.90
45137;DHT22;30894;51.740;19.498;2022-09-09T06:36:05;17.50;99.90
45137;DHT22;30894;51.740;19.498;2022-09-09T06:38:31;17.90;99.90
45137;DHT22;30894;51.740;19.498;2022-09-09T06:40:59;18.20;99.90
45137;DHT22;30894;51.740;19.498;2022-09-09T06:43:26;18.60;99.90
45137;DHT22;30894;51.740;19.498;2022-09-09T06:45:56;18.80;99.90
45137;DHT22;30894;51.740;19.498;2022-09-09T06:48:27;19.30;99.90
45137;DHT22;30894;51.740;19.498;2022-09-09T06:51:19;19.70;99.40
45137;DHT22;30894;51.740;19.498;2022-09-09T06:53:53;19.60;99.30
45137;DHT22;30894;51.740;19.498;2022-09-09T06:56:35;19.50;99.90
45137;DHT22;30894;51.740;19.498;2022-09-09T06:59:04;19.80;99.90
45137;DHT22;30894;51.740;19.498;2022-09-09T07:01:33;20.20;99.30
45137;DHT22;30894;51.740;19.498;2022-09-09T07:04:02;20.30;99.10
45137;DHT22;30894;51.740;19.498;2022-09-09T07:06:31;20.60;98.60
45137;DHT22;30894;51.740;19.498;2022-09-09T07:09:00;20.60;98.40
45137;DHT22;30894;51.740;19.498;2022-09-09T07:11:36;20.50;99.20
45137;DHT22;30894;51.740;19.498;2022-09-09T07:14:05;20.30;99.90
45137;DHT22;30894;51.740;19.498;2022-09-09T07:16:31;20.70;99.90
45137;DHT22;30894;51.740;19.498;2022-09-09T07:18:59;21.00;98.90
45137;DHT22;30894;51.740;19.498;2022-09-09T07:21:27;21.10;98.70
45137;DHT22;30894;51.740;19.498;2022-09-09T07:23:54;21.50;97.90
45137;DHT22;30894;51.740;19.498;2022-09-09T07:26:24;21.50;97.10
45137;DHT22;30894;51.740;19.498;2022-09-09T07:28:51;21.20;97.80
45137;DHT22;30894;51.740;19.498;2022-09-09T07:31:22;20.90;98.80
45137;DHT22;30894;51.740;19.498;2022-09-09T07:33:50;21.00;99.40
45137;DHT22;30894;51.740;19.498;2022-09-09T07:36:22;21.30;98.40
45137;DHT22;30894;51.740;19.498;2022-09-09T07:38:55;21.20;98.50
45137;DHT22;30894;51.740;19.498;2022-09-09T07:41:24;21.10;99.10
45137;DHT22;30894;51.740;19.498;2022-09-09T07:43:52;21.00;99.70
45137;DHT22;30894;51.740;19.498;2022-09-09T07:46:23;21.00;99.90
45137;DHT22;30894;51.740;19.498;2022-09-09T07:48:54;20.80;99.90
45137;DHT22;30894;51.740;19.498;2022-09-09T07:51:26;20.70;99.90
45137;DHT22;30894;51.740;19.498;2022-09-09T07:54:06;20.60;99.90
45137;DHT22;30894;51.740;19.498;2022-09-09T07:56:35;20.70;99.90
45137;DHT22;30894;51.740;19.498;2022-09-09T07:59:02;20.70;99.90
45137;DHT22;30894;51.740;19.498;2022-09-09T08:01:35;20.60;99.90
45137;DHT22;30894;51.740;19.498;2022-09-09T08:04:09;20.60;99.90
45137;DHT22;30894;51.740;19.498;2022-09-09T08:06:49;21.00;99.90
45137;DHT22;30894;51.740;19.498;2022-09-09T08:09:20;21.40;99.90
45137;DHT22;30894;51.740;19.498;2022-09-09T08:11:50;21.50;99.90
45137;DHT22;30894;51.740;19.498;2022-09-09T08:14:16;21.90;99.70
45137;DHT22;30894;51.740;19.498;2022-09-09T08:16:45;22.90;97.60
45137;DHT22;30894;51.740;19.498;2022-09-09T08:19:13;23.80;94.30
45137;DHT22;30894;51.740;19.498;2022-09-09T08:21:41;24.00;93.10
45137;DHT22;30894;51.740;19.498;2022-09-09T08:24:09;24.40;92.30
45137;DHT22;30894;51.740;19.498;2022-09-09T08:26:41;24.40;91.80
45137;DHT22;30894;51.740;19.498;2022-09-09T08:29:10;24.70;91.40
45137;DHT22;30894;51.740;19.498;2022-09-09T08:31:48;25.00;91.10
45137;DHT22;30894;51.740;19.498;2022-09-09T08:34:20;25.60;90.20
45137;DHT22;30894;51.740;19.498;2022-09-09T08:36:48;25.70;89.30
45137;DHT22;30894;51.740;19.498;2022-09-09T08:39:16;25.70;89.60
45137;DHT22;30894;51.740;19.498;2022-09-09T08:44:57;25.60;90.20
45137;DHT22;30894;51.740;19.498;2022-09-09T08:47:58;26.00;89.40
45137;DHT22;30894;51.740;19.498;2022-09-09T08:50:32;25.70;90.20
45137;DHT22;30894;51.740;19.498;2022-09-09T08:53:11;25.90;90.70
45137;DHT22;30894;51.740;19.498;2022-09-09T08:55:51;26.30;89.80
45137;DHT22;30894;51.740;19.498;2022-09-09T08:58:28;26.50;89.60
45137;DHT22;30894;51.740;19.498;2022-09-09T09:04:11;26.10;90.40
45137;DHT22;30894;51.740;19.498;2022-09-09T09:13:11;24.30;93.90
45137;DHT22;30894;51.740;19.498;2022-09-09T09:15:50;24.20;94.80
45137;DHT22;30894;51.740;19.498;2022-09-09T09:18:26;24.40;94.60
45137;DHT22;30894;51.740;19.498;2022-09-09T09:21:03;24.50;94.60
45137;DHT22;30894;51.740;19.498;2022-09-09T09:23:42;25.20;93.70
45137;DHT22;30894;51.740;19.498;2022-09-09T09:26:12;26.30;91.00
45137;DHT22;30894;51.740;19.498;2022-09-09T09:28:39;26.80;89.40
45137;DHT22;30894;51.740;19.498;2022-09-09T09:31:12;26.80;88.30
45137;DHT22;30894;51.740;19.498;2022-09-09T09:33:53;27.40;87.60
45137;DHT22;30894;51.740;19.498;2022-09-09T09:36:21;29.10;83.30
45137;DHT22;30894;51.740;19.498;2022-09-09T09:39:00;30.30;78.30
45137;DHT22;30894;51.740;19.498;2022-09-09T09:41:35;31.00;75.80
45137;DHT22;30894;51.740;19.498;2022-09-09T09:44:05;32.20;73.10
45137;DHT22;30894;51.740;19.498;2022-09-09T09:46:32;32.30;71.30
45137;DHT22;30894;51.740;19.498;2022-09-09T09:49:03;32.80;70.80
45137;DHT22;30894;51.740;19.498;2022-09-09T09:51:32;33.10;70.60
45137;DHT22;30894;51.740;19.498;2022-09-09T09:54:14;33.80;68.90
45137;DHT22;30894;51.740;19.498;2022-09-09T09:56:45;33.30;69.20
45137;DHT22;30894;51.740;19.498;2022-09-09T09:59:23;33.90;69.20
45137;DHT22;30894;51.740;19.498;2022-09-09T10:05:12;36.30;66.10
45137;DHT22;30894;51.740;19.498;2022-09-09T10:07:39;37.30;64.30
45137;DHT22;30894;51.740;19.498;2022-09-09T10:10:05;36.60;64.80
45137;DHT22;30894;51.740;19.498;2022-09-09T10:12:59;35.70;66.50
45137;DHT22;30894;51.740;19.498;2022-09-09T10:24:41;32.40;72.40
45137;DHT22;30894;51.740;19.498;2022-09-09T10:27:43;31.70;74.10
45137;DHT22;30894;51.740;19.498;2022-09-09T10:30:23;31.50;74.50
45137;DHT22;30894;51.740;19.498;2022-09-09T10:33:16;31.40;74.60
45137;DHT22;30894;51.740;19.498;2022-09-09T10:39:04;32.40;72.20
45137;DHT22;30894;51.740;19.498;2022-09-09T10:41:53;32.10;72.50
45137;DHT22;30894;51.740;19.498;2022-09-09T10:44:32;32.80;71.70
45137;DHT22;30894;51.740;19.498;2022-09-09T10:55:45;35.80;66.20
45137;DHT22;30894;51.740;19.498;2022-09-09T10:58:38;36.30;64.30
45137;DHT22;30894;51.740;19.498;2022-09-09T11:01:41;35.80;65.00
45137;DHT22;30894;51.740;19.498;2022-09-09T11:04:27;35.20;65.70
45137;DHT22;30894;51.740;19.498;2022-09-09T11:07:25;34.60;67.50
45137;DHT22;30894;51.740;19.498;2022-09-09T11:10:02;34.00;67.90
45137;DHT22;30894;51.740;19.498;2022-09-09T11:12:34;33.50;68.50
45137;DHT22;30894;51.740;19.498;2022-09-09T11:15:23;33.60;68.60
45137;DHT22;30894;51.740;19.498;2022-09-09T11:17:56;33.20;69.10
45137;DHT22;30894;51.740;19.498;2022-09-09T11:20:25;33.40;69.00
45137;DHT22;30894;51.740;19.498;2022-09-09T11:23:05;34.30;67.20
45137;DHT22;30894;51.740;19.498;2022-09-09T11:25:44;35.00;66.60
45137;DHT22;30894;51.740;19.498;2022-09-09T11:31:47;36.20;63.70
45137;DHT22;30894;51.740;19.498;2022-09-09T11:40:23;35.40;64.30
45137;DHT22;30894;51.740;19.498;2022-09-09T11:43:01;34.70;65.30
45137;DHT22;30894;51.740;19.498;2022-09-09T11:45:30;33.80;66.60
45137;DHT22;30894;51.740;19.498;2022-09-09T11:47:58;33.00;68.20
45137;DHT22;30894;51.740;19.498;2022-09-09T11:52:51;32.20;70.00
45137;DHT22;30894;51.740;19.498;2022-09-09T11:55:30;33.20;68.40
45137;DHT22;30894;51.740;19.498;2022-09-09T12:06:25;38.20;60.00
45137;DHT22;30894;51.740;19.498;2022-09-09T12:09:08;39.20;58.30
45137;DHT22;30894;51.740;19.498;2022-09-09T12:11:36;39.80;57.10
45137;DHT22;30894;51.740;19.498;2022-09-09T12:14:02;39.70;57.70
45137;DHT22;30894;51.740;19.498;2022-09-09T12:16:34;39.10;58.10
45137;DHT22;30894;51.740;19.498;2022-09-09T12:24:41;35.40;63.00
45137;DHT22;30894;51.740;19.498;2022-09-09T12:27:35;34.40;64.90
45137;DHT22;30894;51.740;19.498;2022-09-09T12:30:15;33.50;66.30
45137;DHT22;30894;51.740;19.498;2022-09-09T12:32:41;32.90;67.50
45137;DHT22;30894;51.740;19.498;2022-09-09T12:35:22;32.40;68.30
45137;DHT22;30894;51.740;19.498;2022-09-09T12:37:57;32.00;68.60
45137;DHT22;30894;51.740;19.498;2022-09-09T12:40:30;31.80;69.10
45137;DHT22;30894;51.740;19.498;2022-09-09T12:43:01;31.70;69.40
45137;DHT22;30894;51.740;19.498;2022-09-09T12:45:32;31.90;69.00
45137;DHT22;30894;51.740;19.498;2022-09-09T12:48:10;32.50;67.60
45137;DHT22;30894;51.740;19.498;2022-09-09T12:50:49;33.00;66.80
45137;DHT22;30894;51.740;19.498;2022-09-09T12:53:31;33.60;65.60
45137;DHT22;30894;51.740;19.498;2022-09-09T12:56:09;34.70;63.90
45137;DHT22;30894;51.740;19.498;2022-09-09T12:58:46;36.00;62.40
45137;DHT22;30894;51.740;19.498;2022-09-09T13:01:35;37.50;59.80
45137;DHT22;30894;51.740;19.498;2022-09-09T13:04:01;38.50;58.40
45137;DHT22;30894;51.740;19.498;2022-09-09T13:06:32;39.20;57.20
45137;DHT22;30894;51.740;19.498;2022-09-09T13:09:00;39.20;56.70
45137;DHT22;30894;51.740;19.498;2022-09-09T13:11:36;39.10;57.20
45137;DHT22;30894;51.740;19.498;2022-09-09T13:14:05;38.90;57.50
45137;DHT22;30894;51.740;19.498;2022-09-09T13:16:34;38.90;57.60
45137;DHT22;30894;51.740;19.498;2022-09-09T13:19:09;38.90;57.70
45137;DHT22;30894;51.740;19.498;2022-09-09T13:21:40;39.00;57.70
45137;DHT22;30894;51.740;19.498;2022-09-09T13:24:23;39.00;57.50
45137;DHT22;30894;51.740;19.498;2022-09-09T13:27:02;38.10;58.40
45137;DHT22;30894;51.740;19.498;2022-09-09T13:29:31;36.80;59.80
45137;DHT22;30894;51.740;19.498;2022-09-09T13:32:05;35.70;61.50
45137;DHT22;30894;51.740;19.498;2022-09-09T13:34:34;34.70;62.90
45137;DHT22;30894;51.740;19.498;2022-09-09T13:37:20;34.20;64.50
45137;DHT22;30894;51.740;19.498;2022-09-09T13:40:04;33.90;64.60
45137;DHT22;30894;51.740;19.498;2022-09-09T13:42:34;33.40;65.60
45137;DHT22;30894;51.740;19.498;2022-09-09T13:45:04;33.70;65.20
45137;DHT22;30894;51.740;19.498;2022-09-09T13:47:32;33.70;64.70
45137;DHT22;30894;51.740;19.498;2022-09-09T13:52:56;33.00;65.80
45137;DHT22;30894;51.740;19.498;2022-09-09T13:55:27;33.80;64.60
45137;DHT22;30894;51.740;19.498;2022-09-09T13:57:56;34.40;63.30
45137;DHT22;30894;51.740;19.498;2022-09-09T14:00:24;35.00;62.20
45137;DHT22;30894;51.740;19.498;2022-09-09T14:02:51;35.90;60.80
45137;DHT22;30894;51.740;19.498;2022-09-09T14:05:18;36.40;59.70
45137;DHT22;30894;51.740;19.498;2022-09-09T14:07:44;35.80;60.10
45137;DHT22;30894;51.740;19.498;2022-09-09T14:10:12;35.00;61.20
45137;DHT22;30894;51.740;19.498;2022-09-09T14:12:38;33.90;62.60
45137;DHT22;30894;51.740;19.498;2022-09-09T14:15:05;32.90;64.20
45137;DHT22;30894;51.740;19.498;2022-09-09T14:17:32;31.90;65.50
45137;DHT22;30894;51.740;19.498;2022-09-09T14:20:03;31.10;66.70
45137;DHT22;30894;51.740;19.498;2022-09-09T14:22:33;30.50;67.60
45137;DHT22;30894;51.740;19.498;2022-09-09T14:25:00;30.00;68.40
45137;DHT22;30894;51.740;19.498;2022-09-09T14:27:26;29.50;69.00
45137;DHT22;30894;51.740;19.498;2022-09-09T14:29:52;29.50;69.60
45137;DHT22;30894;51.740;19.498;2022-09-09T14:32:18;29.40;69.60
45137;DHT22;30894;51.740;19.498;2022-09-09T14:34:45;29.20;69.50
45137;DHT22;30894;51.740;19.498;2022-09-09T14:37:11;28.90;69.70
45137;DHT22;30894;51.740;19.498;2022-09-09T14:39:37;28.60;69.90
45137;DHT22;30894;51.740;19.498;2022-09-09T14:42:03;28.30;70.10
45137;DHT22;30894;51.740;19.498;2022-09-09T14:44:30;28.00;70.30
45137;DHT22;30894;51.740;19.498;2022-09-09T14:46:56;27.70;70.70
45137;DHT22;30894;51.740;19.498;2022-09-09T14:49:22;27.40;71.00
45137;DHT22;30894;51.740;19.498;2022-09-09T14:51:48;27.10;71.40
45137;DHT22;30894;51.740;19.498;2022-09-09T14:54:14;26.80;71.70
45137;DHT22;30894;51.740;19.498;2022-09-09T14:56:41;26.40;72.00
45137;DHT22;30894;51.740;19.498;2022-09-09T14:59:07;26.20;72.30
45137;DHT22;30894;51.740;19.498;2022-09-09T15:01:33;25.90;72.60
45137;DHT22;30894;51.740;19.498;2022-09-09T15:04:01;25.60;72.80
45137;DHT22;30894;51.740;19.498;2022-09-09T15:06:31;25.50;73.00
45137;DHT22;30894;51.740;19.498;2022-09-09T15:09:04;25.40;73.10
45137;DHT22;30894;51.740;19.498;2022-09-09T15:11:34;25.30;73.10
45137;DHT22;30894;51.740;19.498;2022-09-09T15:14:04;25.30;72.80
45137;DHT22;30894;51.740;19.498;2022-09-09T15:16:30;25.70;72.70
45137;DHT22;30894;51.740;19.498;2022-09-09T15:18:59;26.50;71.10
45137;DHT22;30894;51.740;19.498;2022-09-09T15:21:34;27.00;69.80
45137;DHT22;30894;51.740;19.498;2022-09-09T15:24:01;26.90;69.60
45137;DHT22;30894;51.740;19.498;2022-09-09T15:26:28;26.80;69.80
45137;DHT22;30894;51.740;19.498;2022-09-09T15:28:55;26.80;69.70
45137;DHT22;30894;51.740;19.498;2022-09-09T15:31:27;26.40;69.90
45137;DHT22;30894;51.740;19.498;2022-09-09T15:34:01;26.00;70.40
45137;DHT22;30894;51.740;19.498;2022-09-09T15:36:43;25.70;71.00
45137;DHT22;30894;51.740;19.498;2022-09-09T15:39:13;25.40;71.30
45137;DHT22;30894;51.740;19.498;2022-09-09T15:41:43;25.30;71.70
45137;DHT22;30894;51.740;19.498;2022-09-09T15:44:10;25.20;71.80
45137;DHT22;30894;51.740;19.498;2022-09-09T15:46:43;25.00;72.00
45137;DHT22;30894;51.740;19.498;2022-09-09T15:49:18;24.80;72.20
45137;DHT22;30894;51.740;19.498;2022-09-09T15:51:56;24.60;72.50
45137;DHT22;30894;51.740;19.498;2022-09-09T15:54:25;24.40;72.60
45137;DHT22;30894;51.740;19.498;2022-09-09T15:56:56;24.20;72.80
45137;DHT22;30894;51.740;19.498;2022-09-09T15:59:24;24.10;72.80
45137;DHT22;30894;51.740;19.498;2022-09-09T16:01:52;24.00;73.10
45137;DHT22;30894;51.740;19.498;2022-09-09T16:04:19;23.80;73.10
45137;DHT22;30894;51.740;19.498;2022-09-09T16:06:57;23.80;73.30
45137;DHT22;30894;51.740;19.498;2022-09-09T16:09:25;23.60;73.30
45137;DHT22;30894;51.740;19.498;2022-09-09T16:11:52;23.50;73.50
45137;DHT22;30894;51.740;19.498;2022-09-09T16:16:55;23.40;73.60
45137;DHT22;30894;51.740;19.498;2022-09-09T16:19:22;23.40;73.60
45137;DHT22;30894;51.740;19.498;2022-09-09T16:21:49;23.30;73.60
45137;DHT22;30894;51.740;19.498;2022-09-09T16:24:17;23.20;73.50
45137;DHT22;30894;51.740;19.498;2022-09-09T16:26:47;23.10;73.60
45137;DHT22;30894;51.740;19.498;2022-09-09T16:29:15;23.00;73.80
45137;DHT22;30894;51.740;19.498;2022-09-09T16:31:46;22.90;73.80
45137;DHT22;30894;51.740;19.498;2022-09-09T16:34:16;22.80;74.10
45137;DHT22;30894;51.740;19.498;2022-09-09T16:36:44;22.60;74.30
45137;DHT22;30894;51.740;19.498;2022-09-09T16:39:13;22.50;74.50
45137;DHT22;30894;51.740;19.498;2022-09-09T16:41:44;22.50;74.70
45137;DHT22;30894;51.740;19.498;2022-09-09T16:44:12;22.30;74.80
45137;DHT22;30894;51.740;19.498;2022-09-09T16:46:41;22.20;75.00
45137;DHT22;30894;51.740;19.498;2022-09-09T16:49:09;22.10;75.10
45137;DHT22;30894;51.740;19.498;2022-09-09T16:51:45;22.00;75.30
45137;DHT22;30894;51.740;19.498;2022-09-09T16:54:22;21.80;75.50
45137;DHT22;30894;51.740;19.498;2022-09-09T16:56:49;21.70;75.90
45137;DHT22;30894;51.740;19.498;2022-09-09T16:59:17;21.50;76.00
45137;DHT22;30894;51.740;19.498;2022-09-09T17:01:48;21.30;76.30
45137;DHT22;30894;51.740;19.498;2022-09-09T17:04:18;21.20;76.70
45137;DHT22;30894;51.740;19.498;2022-09-09T17:06:51;21.00;77.00
45137;DHT22;30894;51.740;19.498;2022-09-09T17:09:19;20.80;77.30
45137;DHT22;30894;51.740;19.498;2022-09-09T17:11:48;20.60;77.70
45137;DHT22;30894;51.740;19.498;2022-09-09T17:14:18;20.50;78.10
45137;DHT22;30894;51.740;19.498;2022-09-09T17:16:45;20.30;78.40
45137;DHT22;30894;51.740;19.498;2022-09-09T17:19:12;20.10;78.80
45137;DHT22;30894;51.740;19.498;2022-09-09T17:21:45;20.00;79.10
45137;DHT22;30894;51.740;19.498;2022-09-09T17:24:12;19.80;79.40
45137;DHT22;30894;51.740;19.498;2022-09-09T17:26:43;19.70;79.70
45137;DHT22;30894;51.740;19.498;2022-09-09T17:29:13;19.50;80.00
45137;DHT22;30894;51.740;19.498;2022-09-09T17:31:40;19.30;80.40
45137;DHT22;30894;51.740;19.498;2022-09-09T17:34:09;19.20;80.70